Time;durP1;ratioP1;P1;durP2;ratioP2;P2;SDS_P1;SDS_P2;PMS_P1;PMS_P2;Temp;Humidity;BMP_temperature;BMP_pressure;BME280_temperature;BME280_humidity;BME280_pressure;Samples;Min_cycle;Max_cycle;Signal;HPM_P1;HPM_P2
2023/04/10 00:01:08;;;;;;;12.98;8.13;;;;;;;12.92;44.53;102068.19;4924962;28;119396;-79
2023/04/10 00:03:35;;;;;;;13.15;8.23;;;;;;;12.94;44.52;102066.34;4931848;28;118446;-80
2023/04/10 00:06:03;;;;;;;11.70;7.60;;;;;;;12.95;44.72;102068.06;4931762;28;124198;-79
2023/04/10 00:08:30;;;;;;;11.40;7.40;;;;;;;12.95;44.76;102073.38;4952588;28;123603;-79
2023/04/10 00:10:57;;;;;;;11.30;7.80;;;;;;;12.95;44.67;102073.38;4941947;28;120324;-79
2023/04/10 00:13:25;;;;;;;11.38;7.80;;;;;;;12.96;44.64;102069.81;4936094;28;119090;-79
2023/04/10 00:15:52;;;;;;;9.75;7.20;;;;;;;12.96;44.68;102069.81;4934426;28;123504;-79
2023/04/10 00:18:19;;;;;;;10.70;7.70;;;;;;;12.95;44.60;102062.75;4929501;28;124338;-79
2023/04/10 00:20:47;;;;;;;12.05;8.00;;;;;;;12.94;44.74;102055.72;4924795;28;117967;-79
2023/04/10 00:23:14;;;;;;;10.90;7.38;;;;;;;12.94;44.79;102045.06;4936028;28;119581;-79
2023/04/10 00:25:41;;;;;;;11.13;7.38;;;;;;;12.92;44.73;102041.59;4921688;28;125243;-79
2023/04/10 00:28:08;;;;;;;11.57;7.75;;;;;;;12.92;44.79;102038.94;4953648;28;125182;-79
2023/04/10 00:30:35;;;;;;;10.88;7.45;;;;;;;12.90;44.79;102035.44;4919162;28;117546;-79
2023/04/10 00:33:03;;;;;;;12.40;7.82;;;;;;;12.89;44.86;102028.41;4935265;28;118692;-79
2023/04/10 00:35:30;;;;;;;11.30;7.75;;;;;;;12.88;45.00;102026.66;4951418;28;124322;-79
2023/04/10 00:37:57;;;;;;;12.30;8.48;;;;;;;12.86;44.85;102025.84;4952957;28;123801;-79
2023/04/10 00:40:25;;;;;;;13.40;8.48;;;;;;;12.84;44.86;102017.06;4931782;28;120758;-78
2023/04/10 00:42:52;;;;;;;16.92;10.52;;;;;;;12.83;45.02;102015.34;4927947;28;119727;-79
2023/04/10 00:45:19;;;;;;;21.33;11.60;;;;;;;12.82;44.91;102010.94;4930377;28;124107;-78
2023/04/10 00:47:47;;;;;;;26.83;14.65;;;;;;;12.79;45.03;102008.38;4913242;28;124159;-79
2023/04/10 00:50:14;;;;;;;25.48;13.95;;;;;;;12.77;45.11;102005.78;4945953;28;119251;-78
2023/04/10 00:52:42;;;;;;;22.00;12.65;;;;;;;12.76;45.14;102003.19;4948129;28;120130;-79
2023/04/10 00:55:10;;;;;;;17.33;10.65;;;;;;;12.74;45.06;101997.06;4924831;28;123293;-78
2023/04/10 00:57:38;;;;;;;14.88;8.70;;;;;;;12.70;45.01;101990.13;4926630;28;123041;-79
2023/04/10 01:00:06;;;;;;;12.85;8.70;;;;;;;12.68;45.16;101999.91;4924151;28;118091;-78
2023/04/10 01:02:34;;;;;;;13.32;8.13;;;;;;;12.66;45.22;101997.34;4928518;28;118797;-79
2023/04/10 01:05:01;;;;;;;12.25;8.15;;;;;;;12.63;45.13;101987.66;4924353;28;125359;-79
2023/04/10 01:07:54;;;;;;;11.68;8.00;;;;;;;12.60;45.17;101995.75;4925246;28;123623;-78
2023/04/10 01:10:28;;;;;;;12.98;8.50;;;;;;;12.57;45.38;101993.19;4924696;28;119255;-79
2023/04/10 01:13:14;;;;;;;13.18;8.32;;;;;;;12.53;45.22;101991.56;4928487;28;118825;-79
2023/04/10 01:15:48;;;;;;;12.48;8.05;;;;;;;12.51;45.32;101993.41;4929883;28;122106;-78
2023/04/10 01:18:20;;;;;;;12.40;8.00;;;;;;;12.49;45.50;101984.63;4931391;28;125975;-78
2023/04/10 01:20:47;;;;;;;13.18;8.75;;;;;;;12.48;45.37;101982.88;4942955;28;119536;-79
2023/04/10 01:23:56;;;;;;;14.38;8.20;;;;;;;12.45;45.61;101977.66;4931351;28;118182;-79
2023/04/10 01:26:55;;;;;;;13.30;8.32;;;;;;;12.43;45.47;101984.81;4835480;28;123373;-78
2023/04/10 01:29:28;;;;;;;12.70;8.40;;;;;;;12.41;45.46;101981.34;4832639;28;124406;-79
2023/04/10 01:32:07;;;;;;;13.52;8.50;;;;;;;12.37;45.60;101982.38;4921714;28;121805;-78
2023/04/10 01:34:39;;;;;;;13.80;9.10;;;;;;;12.35;45.49;101978.91;4946991;28;120787;-79
2023/04/10 01:37:15;;;;;;;15.27;9.50;;;;;;;12.32;45.45;101976.34;4914558;28;125089;-79
2023/04/10 01:39:46;;;;;;;13.82;8.90;;;;;;;12.29;45.60;101974.69;4929537;28;125057;-79
2023/04/10 01:42:17;;;;;;;15.43;9.73;;;;;;;12.26;45.58;101983.63;4935081;28;119748;-79
2023/04/10 01:44:46;;;;;;;14.82;8.90;;;;;;;12.24;45.72;101980.16;4948859;28;119306;-79
2023/04/10 01:47:16;;;;;;;16.25;10.13;;;;;;;12.22;45.75;101975.81;4934983;28;125467;-79
2023/04/10 01:49:45;;;;;;;17.75;10.20;;;;;;;12.19;45.84;101971.47;4933244;28;124319;-79
2023/04/10 01:52:14;;;;;;;16.92;10.73;;;;;;;12.16;45.76;101971.56;4919040;28;120463;-79
2023/04/10 01:54:50;;;;;;;17.38;10.27;;;;;;;12.16;45.83;101971.56;4933856;28;118355;-79
2023/04/10 01:57:24;;;;;;;17.48;10.35;;;;;;;12.15;45.16;101972.50;4927351;28;123248;-79
2023/04/10 01:59:54;;;;;;;18.40;11.05;;;;;;;12.13;45.99;101965.47;4928976;28;122404;-79
2023/04/10 02:02:21;;;;;;;21.10;12.20;;;;;;;12.11;46.06;101967.31;4927623;28;119600;-79
2023/04/10 02:04:50;;;;;;;20.90;11.93;;;;;;;12.07;45.85;101951.53;4946170;28;117439;-79
2023/04/10 02:07:38;;;;;;;22.55;12.60;;;;;;;12.03;45.87;101951.66;4920069;28;124463;-79
2023/04/10 02:10:17;;;;;;;21.58;11.93;;;;;;;12.00;46.05;101959.75;4930546;28;123368;-79
2023/04/10 02:12:52;;;;;;;19.98;11.40;;;;;;;11.96;46.03;101952.78;4941217;28;119827;-79
2023/04/10 02:15:25;;;;;;;22.10;11.30;;;;;;;11.94;46.17;101950.19;4944167;28;119654;-79
2023/04/10 02:17:55;;;;;;;15.95;9.93;;;;;;;11.92;46.11;101945.81;4948045;28;126457;-78
2023/04/10 02:20:24;;;;;;;14.68;9.27;;;;;;;11.88;46.26;101945.03;4919883;28;124872;-79
2023/04/10 02:22:52;;;;;;;11.73;7.75;;;;;;;11.84;46.09;101949.56;4924364;28;118962;-79
2023/04/10 02:25:19;;;;;;;12.35;8.35;;;;;;;11.82;46.33;101943.44;4928421;28;120017;-79
2023/04/10 02:27:48;;;;;;;11.57;7.88;;;;;;;11.80;46.49;101939.97;4915710;28;125198;-79
2023/04/10 02:30:15;;;;;;;11.18;8.07;;;;;;;11.78;46.45;101939.16;4933354;28;122552;-79
2023/04/10 02:32:43;;;;;;;11.75;8.35;;;;;;;11.77;46.43;101945.41;4915009;28;118665;-79
2023/04/10 02:35:10;;;;;;;12.25;8.10;;;;;;;11.77;46.19;101931.22;4933307;28;118391;-79
2023/04/10 02:37:38;;;;;;;10.55;7.55;;;;;;;11.76;46.25;101940.13;4929376;28;124594;-79
2023/04/10 02:40:07;;;;;;;13.00;8.20;;;;;;;11.76;46.56;101935.69;4945003;28;125020;-79
2023/04/10 02:42:46;;;;;;;11.63;8.32;;;;;;;11.77;46.43;101931.22;4925268;28;120306;-79
2023/04/10 02:45:13;;;;;;;12.50;8.07;;;;;;;11.77;46.35;101931.22;4930256;28;120437;-79
2023/04/10 02:47:42;;;;;;;11.13;7.85;;;;;;;11.76;46.72;101925.06;4928315;28;124705;-79
2023/04/10 02:50:10;;;;;;;11.60;7.82;;;;;;;11.76;46.49;101919.75;4915583;28;124348;-79
2023/04/10 02:52:40;;;;;;;11.20;8.15;;;;;;;11.77;46.71;101926.81;4914019;28;120348;-79
2023/04/10 02:55:08;;;;;;;11.60;8.27;;;;;;;11.78;46.43;101922.38;4944020;28;119452;-81
2023/04/10 02:57:37;;;;;;;10.13;7.47;;;;;;;11.78;46.41;101920.56;4935581;28;123846;-79
2023/04/10 03:00:04;;;;;;;11.32;8.02;;;;;;;11.78;46.65;101917.06;4930035;28;125091;-79
2023/04/10 03:02:52;;;;;;;13.82;8.38;;;;;;;11.77;46.25;101921.50;4944359;28;119732;-79
2023/04/10 03:05:20;;;;;;;11.40;7.85;;;;;;;11.75;46.57;101918.00;4931658;28;119302;-79
2023/04/10 03:07:47;;;;;;;12.90;8.60;;;;;;;11.75;46.50;101919.81;4928069;28;125283;-79
2023/04/10 03:10:15;;;;;;;11.48;8.25;;;;;;;11.74;46.66;101924.25;4943028;28;125943;-79
2023/04/10 03:12:42;;;;;;;13.48;8.05;;;;;;;11.72;46.70;101923.44;4942416;28;121582;-79
2023/04/10 03:15:09;;;;;;;13.15;8.35;;;;;;;11.71;46.74;101921.69;4946878;28;120195;-79
2023/04/10 03:17:36;;;;;;;11.95;8.65;;;;;;;11.70;46.60;101914.66;4930304;28;124351;-79
2023/04/10 03:20:06;;;;;;;11.45;7.57;;;;;;;11.69;46.64;101923.53;4941212;28;124537;-78
2023/04/10 03:22:34;;;;;;;13.23;8.18;;;;;;;11.70;46.74;101925.28;4914564;28;119946;-78
2023/04/10 03:25:01;;;;;;;11.57;8.50;;;;;;;11.69;46.61;101927.03;4919976;28;119705;-79
2023/04/10 03:27:31;;;;;;;11.73;8.23;;;;;;;11.70;46.78;101925.28;4945223;28;127560;-78
2023/04/10 03:29:58;;;;;;;11.95;8.77;;;;;;;11.71;46.66;101934.97;4944858;28;122438;-79
2023/04/10 03:32:27;;;;;;;12.40;8.25;;;;;;;11.71;46.62;101937.63;4927813;28;120200;-79
2023/04/10 03:34:54;;;;;;;15.23;8.18;;;;;;;11.70;46.65;101925.28;4936347;28;119172;-79
2023/04/10 03:37:21;;;;;;;13.00;8.73;;;;;;;11.68;46.62;101932.44;4946773;28;123303;-79
2023/04/10 03:39:48;;;;;;;11.40;8.20;;;;;;;11.67;46.59;101920.06;4946233;28;122939;-79
2023/04/10 03:42:15;;;;;;;11.88;8.05;;;;;;;11.65;46.75;101919.25;4913963;28;118140;-79
2023/04/10 03:44:43;;;;;;;13.93;8.98;;;;;;;11.63;46.72;101918.44;4929710;28;118028;-79
2023/04/10 03:47:10;;;;;;;13.02;8.18;;;;;;;11.62;46.81;101916.69;4934912;28;123511;-80
2023/04/10 03:49:38;;;;;;;14.57;8.60;;;;;;;11.59;46.82;101907.03;4927936;28;123930;-79
2023/04/10 03:52:06;;;;;;;11.27;7.30;;;;;;;11.57;47.13;101898.25;4929540;28;118485;-79
2023/04/10 03:54:33;;;;;;;11.18;7.55;;;;;;;11.55;46.65;101899.25;4945648;28;118446;-80
2023/04/10 03:57:00;;;;;;;15.90;9.05;;;;;;;11.50;46.88;101896.72;4917839;28;124261;-79
2023/04/10 03:59:27;;;;;;;12.32;8.50;;;;;;;11.47;46.67;101897.69;4936410;28;122171;-80
2023/04/10 04:02:06;;;;;;;12.02;8.50;;;;;;;11.43;46.89;101895.19;4932281;28;121088;-79
2023/04/10 04:04:34;;;;;;;15.93;8.73;;;;;;;11.38;46.97;101887.38;4934557;28;118426;-80
2023/04/10 04:07:27;;;;;;;13.18;8.27;;;;;;;11.35;46.86;101879.50;4914266;28;124978;-79
2023/04/10 04:10:13;;;;;;;15.02;8.13;;;;;;;11.31;46.96;101875.22;4915331;28;123014;-79
2023/04/10 04:12:52;;;;;;;14.90;7.95;;;;;;;11.27;46.92;101884.19;4945086;28;118587;-79
2023/04/10 04:15:28;;;;;;;12.93;7.80;;;;;;;11.23;47.08;101882.56;4927573;28;118533;-79
2023/04/10 04:18:15;;;;;;;15.10;8.10;;;;;;;11.20;47.24;101877.34;4927829;28;124728;-79
2023/04/10 04:20:50;;;;;;;13.52;8.32;;;;;;;11.20;47.16;101877.34;4913891;28;123454;-79
2023/04/10 04:23:35;;;;;;;11.07;7.97;;;;;;;11.17;47.07;101873.00;4930466;28;120273;-80
2023/04/10 04:26:07;;;;;;;12.90;8.38;;;;;;;11.15;47.25;101879.25;4929009;28;118358;-79
2023/04/10 04:28:50;;;;;;;13.10;7.85;;;;;;;11.14;47.38;101877.53;4913875;28;124572;-79
2023/04/10 04:31:19;;;;;;;13.70;7.78;;;;;;;11.14;47.35;101877.53;4938009;28;123405;-79
2023/04/10 04:34:02;;;;;;;12.90;8.07;;;;;;;11.12;47.24;101874.06;4929582;28;119335;-79
2023/04/10 04:36:49;;;;;;;12.27;7.93;;;;;;;11.09;47.32;101870.59;4928642;28;118394;-79
2023/04/10 04:39:16;;;;;;;11.15;8.18;;;;;;;11.08;47.43;101863.53;4942732;28;124613;-79
2023/04/10 04:42:06;;;;;;;13.23;8.52;;;;;;;11.08;47.80;101867.97;4921547;28;123341;-79
2023/04/10 04:45:01;;;;;;;14.02;8.35;;;;;;;11.07;47.26;101861.78;4927014;28;119108;-79
2023/04/10 04:47:57;;;;;;;12.60;8.52;;;;;;;11.07;47.33;101867.09;4927826;28;119717;-80
2023/04/10 04:50:41;;;;;;;11.75;8.13;;;;;;;11.07;47.59;101871.53;4912948;28;123879;-79
2023/04/10 04:53:14;;;;;;;12.63;7.85;;;;;;;11.06;47.55;101870.69;4913533;28;122612;-79
2023/04/10 04:56:08;;;;;;;15.35;8.27;;;;;;;11.05;47.50;101879.53;4942912;28;121324;-79
2023/04/10 04:59:05;;;;;;;13.38;8.40;;;;;;;11.01;47.40;101867.28;4929141;28;118395;-79
2023/04/10 05:01:50;;;;;;;;;;;;;;;10.98;47.48;101867.41;4941208;28;124563;-77
2023/04/10 05:04:44;;;;;;;14.90;7.75;;;;;;;10.98;47.25;101856.81;4927328;28;123162;-78
2023/04/10 05:07:24;;;;;;;13.60;8.27;;;;;;;10.94;47.52;101849.84;4943116;28;119910;-77
2023/04/10 05:10:14;;;;;;;13.27;7.85;;;;;;;10.93;47.53;101848.13;4929065;28;117654;-78
2023/04/10 05:12:59;;;;;;;15.18;8.50;;;;;;;10.92;47.50;101851.66;4941938;28;124882;-78
2023/04/10 05:16:02;;;;;;;12.52;7.53;;;;;;;10.88;47.45;101845.59;4919579;28;124218;-77
2023/04/10 05:18:45;;;;;;;14.90;8.50;;;;;;;10.87;47.65;101843.00;4936533;28;119268;-78
2023/04/10 05:21:39;;;;;;;17.80;8.02;;;;;;;10.85;47.50;101844.81;4925769;28;118792;-78
2023/04/10 05:24:22;;;;;;;12.15;7.88;;;;;;;10.84;47.60;101835.13;4943888;28;122445;-77
2023/04/10 05:27:08;;;;;;;15.25;8.63;;;;;;;10.84;47.41;101838.66;4927766;28;124805;-77
2023/04/10 05:30:07;;;;;;;12.20;7.75;;;;;;;10.84;47.57;101837.78;4912268;28;119157;-78
2023/04/10 05:32:42;;;;;;;11.80;7.80;;;;;;;10.85;47.91;101840.41;4942727;28;118990;-78
2023/04/10 05:35:25;;;;;;;14.88;8.02;;;;;;;10.89;47.90;101841.19;4928081;28;124171;-77
2023/04/10 05:38:00;;;;;;;13.38;8.18;;;;;;;10.91;47.83;101836.69;4927504;28;124344;-78
2023/04/10 05:40:36;;;;;;;15.25;9.25;;;;;;;10.95;47.93;101840.97;4925230;28;119476;-78
2023/04/10 05:43:23;;;;;;;14.93;8.10;;;;;;;10.98;47.91;101829.41;4931229;28;120059;-78
2023/04/10 05:46:00;;;;;;;13.77;8.30;;;;;;;11.00;47.92;101828.47;4929884;28;123588;-78
2023/04/10 05:48:50;;;;;;;13.93;7.80;;;;;;;11.05;48.05;101831.81;4917150;28;125102;-77
2023/04/10 05:51:28;;;;;;;12.27;7.53;;;;;;;11.09;47.98;101833.47;4930544;28;119883;-77
2023/04/10 05:54:16;;;;;;;12.48;7.72;;;;;;;11.15;48.02;101834.19;4924452;28;119117;-77
2023/04/10 05:57:06;;;;;;;15.35;7.88;;;;;;;11.20;48.06;101834.91;4936486;28;123141;-78
2023/04/10 05:59:43;;;;;;;12.48;7.40;;;;;;;11.26;47.82;101840.00;4953167;28;126338;-78
2023/04/10 06:02:26;;;;;;;13.07;8.35;;;;;;;11.31;48.15;101835.44;4932119;28;119408;-78
2023/04/10 06:04:54;;;;;;;20.42;8.32;;;;;;;11.38;47.85;101823.72;4937330;28;118913;-77
2023/04/10 06:07:22;;;;;;;13.80;7.32;;;;;;;11.46;47.95;101836.72;4933705;28;123264;-78
2023/04/10 06:09:49;;;;;;;12.88;7.43;;;;;;;11.53;47.92;101832.97;4914253;28;123586;-78
2023/04/10 06:12:16;;;;;;;14.65;7.78;;;;;;;11.59;48.08;101827.44;4913715;28;118838;-78
2023/04/10 06:14:43;;;;;;;13.32;7.93;;;;;;;11.68;48.30;101831.59;4928804;28;118062;-77
2023/04/10 06:17:11;;;;;;;13.07;7.68;;;;;;;11.76;48.14;101832.19;4916912;28;123740;-78
2023/04/10 06:19:39;;;;;;;13.65;7.85;;;;;;;11.83;47.94;101831.06;4928016;28;123153;-78
2023/04/10 06:22:06;;;;;;;12.10;7.88;;;;;;;11.90;48.05;101836.19;4927885;28;118258;-78
2023/04/10 06:24:33;;;;;;;11.52;7.55;;;;;;;11.97;47.85;101827.94;4950555;28;117175;-78
2023/04/10 06:27:01;;;;;;;11.80;7.85;;;;;;;12.05;47.85;101825.00;4925803;28;125594;-78
2023/04/10 06:29:28;;;;;;;12.65;8.13;;;;;;;12.14;47.83;101819.38;4941620;28;124084;-78
2023/04/10 06:31:56;;;;;;;12.07;7.82;;;;;;;12.21;48.02;101820.91;4938860;28;119215;-78
2023/04/10 06:34:23;;;;;;;14.25;7.80;;;;;;;12.32;47.73;101816.97;4957215;28;117487;-78
2023/04/10 06:36:56;;;;;;;11.73;7.13;;;;;;;12.40;47.79;101814.91;4952877;28;124593;-78
2023/04/10 06:39:24;;;;;;;12.85;7.53;;;;;;;12.47;47.47;101811.13;4962276;28;125491;-78
2023/04/10 06:41:52;;;;;;;10.45;7.57;;;;;;;12.53;47.45;101816.19;4949790;28;119382;-78
2023/04/10 06:44:41;;;;;;;12.55;7.03;;;;;;;12.60;47.37;101811.50;4950892;28;118611;-78
2023/04/10 06:47:09;;;;;;;11.32;7.00;;;;;;;12.69;47.44;101804.97;4965163;28;125909;-78
2023/04/10 06:49:36;;;;;;;11.30;7.35;;;;;;;12.75;47.21;101799.41;4959083;28;124425;-78
2023/04/10 06:52:04;;;;;;;12.13;7.35;;;;;;;12.83;47.32;101798.19;4969652;28;120103;-78
2023/04/10 06:54:31;;;;;;;10.93;7.28;;;;;;;12.93;47.16;101798.69;4968998;28;119830;-78
2023/04/10 06:56:58;;;;;;;11.18;7.22;;;;;;;13.01;46.98;101795.72;4969493;28;124673;-78
2023/04/10 06:59:25;;;;;;;9.70;7.07;;;;;;;13.11;46.84;101785.56;4956621;28;124203;-78
2023/04/10 07:01:53;;;;;;;11.65;7.30;;;;;;;13.20;46.81;101785.22;4956175;28;117864;-78
2023/04/10 07:04:20;;;;;;;11.10;7.45;;;;;;;13.27;46.78;101773.38;4955918;28;118522;-79
2023/04/10 07:06:48;;;;;;;11.10;7.13;;;;;;;13.35;46.70;101763.31;4950988;28;124460;-78
2023/04/10 07:09:16;;;;;;;11.95;6.93;;;;;;;13.45;46.67;101761.16;4961832;28;125178;-80
2023/04/10 07:11:43;;;;;;;13.45;7.10;;;;;;;13.55;46.53;101753.66;4944874;28;118825;-78
2023/04/10 07:14:11;;;;;;;10.48;6.82;;;;;;;13.63;46.74;101746.19;4944175;28;119269;-79
2023/04/10 07:16:38;;;;;;;11.88;7.40;;;;;;;13.74;46.50;101738.59;4956530;28;124674;-79
2023/04/10 07:19:05;;;;;;;11.80;6.80;;;;;;;13.82;46.33;101741.81;4965426;28;124190;-81
2023/04/10 07:21:32;;;;;;;11.45;7.40;;;;;;;13.92;46.23;101736.03;4964465;28;119830;-83
2023/04/10 07:24:00;;;;;;;13.88;7.10;;;;;;;13.98;46.20;101735.78;4937223;28;118425;-81
2023/04/10 07:26:27;;;;;;;10.80;7.70;;;;;;;14.07;46.29;101735.38;4933858;28;122931;-82
2023/04/10 07:28:54;;;;;;;11.55;7.15;;;;;;;14.15;46.02;101733.22;4956806;28;122373;-81
2023/04/10 07:31:23;;;;;;;10.70;6.90;;;;;;;14.24;45.86;101725.72;4933788;28;120899;-80
2023/04/10 07:33:50;;;;;;;13.30;7.07;;;;;;;14.29;45.86;101719.25;4952121;28;118124;-81
2023/04/10 07:36:18;;;;;;;11.70;7.60;;;;;;;14.38;45.76;101717.97;4954740;28;123899;-84
2023/04/10 07:38:45;;;;;;;10.27;7.20;;;;;;;14.46;45.60;101715.78;4955624;28;124808;-81
2023/04/10 07:41:12;;;;;;;12.38;6.95;;;;;;;14.54;45.44;101713.63;4919865;28;120173;-81
2023/04/10 07:43:40;;;;;;;12.18;7.00;;;;;;;14.59;45.47;101700.09;4935418;28;120150;-80
2023/04/10 07:46:07;;;;;;;9.27;6.55;;;;;;;14.68;45.17;101698.81;4958511;28;124628;-80
2023/04/10 07:48:35;;;;;;;11.15;7.15;;;;;;;14.75;45.39;101694.91;4936011;28;124884;-80
2023/04/10 07:51:02;;;;;;;10.70;7.38;;;;;;;14.83;45.18;101692.72;4938022;28;119965;-80
2023/04/10 07:53:30;;;;;;;10.35;6.97;;;;;;;14.90;44.92;101694.16;4932226;28;118382;-81
2023/04/10 07:55:57;;;;;;;9.68;7.00;;;;;;;14.96;44.85;101692.97;4931143;28;124897;-81
2023/04/10 07:58:24;;;;;;;8.77;6.55;;;;;;;15.04;44.56;101689.94;4944294;28;122280;-81
2023/04/10 08:00:51;;;;;;;10.88;6.90;;;;;;;15.09;44.80;101682.56;4953312;28;120740;-81
2023/04/10 08:03:19;;;;;;;10.35;6.85;;;;;;;15.16;44.96;101679.50;4931674;28;118805;-80
2023/04/10 08:05:46;;;;;;;10.60;6.70;;;;;;;15.28;44.46;101678.00;4916001;28;123674;-81
2023/04/10 08:08:15;;;;;;;8.75;6.35;;;;;;;15.40;44.48;101675.66;4947396;28;124072;-80
2023/04/10 08:10:42;;;;;;;8.77;6.10;;;;;;;15.51;44.17;101673.28;4916266;28;118861;-80
2023/04/10 08:13:09;;;;;;;10.93;6.13;;;;;;;15.64;44.36;101669.00;4921124;28;119930;-81
2023/04/10 08:15:36;;;;;;;8.95;6.15;;;;;;;15.80;44.19;101663.72;4924212;28;125109;-80
2023/04/10 08:18:05;;;;;;;8.95;6.47;;;;;;;15.94;43.77;101657.66;4943352;28;97095;-83
2023/04/10 08:20:35;;;;;;;9.65;6.30;;;;;;;16.06;43.92;101648.94;4950118;28;120910;-80
2023/04/10 08:23:03;;;;;;;9.75;6.57;;;;;;;16.22;43.66;101653.44;4917339;28;121894;-84
2023/04/10 08:25:46;;;;;;;8.85;6.20;;;;;;;16.37;43.47;101657.94;4935799;28;124267;-82
2023/04/10 08:28:14;;;;;;;9.32;6.20;;;;;;;16.48;43.12;101650.19;4921228;28;123676;-83
2023/04/10 08:30:41;;;;;;;10.27;6.65;;;;;;;16.59;43.26;101651.38;4948362;28;117857;-82
2023/04/10 08:33:08;;;;;;;8.13;5.82;;;;;;;16.69;42.93;101652.59;4933662;28;119126;-80
2023/04/10 08:35:35;;;;;;;9.35;6.25;;;;;;;16.78;42.73;101641.31;4937127;28;123098;-81
2023/04/10 08:38:03;;;;;;;8.18;5.32;;;;;;;16.88;42.70;101647.06;4924398;28;122186;-81
2023/04/10 08:40:40;;;;;;;7.90;5.53;;;;;;;16.97;42.22;101651.88;4936726;28;118776;-82
2023/04/10 08:43:07;;;;;;;8.18;5.70;;;;;;;17.00;42.01;101650.81;4936730;28;117126;-83
2023/04/10 08:45:35;;;;;;;8.65;6.15;;;;;;;17.02;42.14;101646.22;4936695;28;124016;-83
2023/04/10 08:48:05;;;;;;;10.40;6.07;;;;;;;17.09;42.06;101644.91;4939854;28;123101;-84
2023/04/10 08:50:35;;;;;;;9.05;5.95;;;;;;;17.17;42.09;101647.97;4937208;28;119976;-80
2023/04/10 08:53:09;;;;;;;9.52;6.30;;;;;;;17.28;42.06;101645.53;4922919;28;119549;-82
2023/04/10 08:55:38;;;;;;;7.80;5.90;;;;;;;17.38;41.96;101631.56;4937656;28;125744;-83
2023/04/10 08:58:06;;;;;;;9.23;5.82;;;;;;;17.43;41.64;101632.16;4931829;28;123316;-84
2023/04/10 09:00:37;;;;;;;9.18;5.72;;;;;;;17.48;41.90;101624.72;4932343;28;119598;-83
2023/04/10 09:03:10;;;;;;;8.35;5.88;;;;;;;17.57;41.74;101626.78;4933290;28;121204;-83
2023/04/10 09:05:37;;;;;;;8.98;6.00;;;;;;;17.70;41.73;101625.06;4934508;28;124590;-83
2023/04/10 09:08:07;;;;;;;8.80;5.90;;;;;;;17.80;41.26;101624.50;4933025;28;124582;-82
2023/04/10 09:10:34;;;;;;;7.22;5.82;;;;;;;17.86;41.18;101618.81;4933545;28;120016;-82
2023/04/10 09:13:01;;;;;;;7.50;5.32;;;;;;;17.92;41.00;101618.41;4917342;28;118134;-84
2023/04/10 09:15:28;;;;;;;9.85;6.20;;;;;;;17.96;40.81;101625.28;4931660;28;123600;-85
2023/04/10 09:17:58;;;;;;;7.70;5.53;;;;;;;18.01;40.89;101617.81;4918736;28;123351;-84
2023/04/10 09:20:28;;;;;;;8.82;5.63;;;;;;;18.03;40.73;101610.53;4935243;28;118012;-84
2023/04/10 09:22:56;;;;;;;6.90;5.40;;;;;;;18.06;40.45;101615.72;4936683;28;117605;-84
2023/04/10 09:25:35;;;;;;;7.22;5.55;;;;;;;18.09;40.42;101604.78;4936337;28;122937;-79
2023/04/10 09:28:06;;;;;;;10.55;5.53;;;;;;;18.14;40.49;101609.84;4934556;28;124996;-79
2023/04/10 09:30:35;;;;;;;7.68;5.65;;;;;;;18.22;40.61;101601.31;4947840;28;119663;-82
2023/04/10 09:33:20;;;;;;;8.60;5.40;;;;;;;18.25;40.42;101593.03;4947111;28;120117;-80
2023/04/10 09:35:48;;;;;;;10.10;5.30;;;;;;;18.29;40.43;101583.88;4929940;28;122043;-79
2023/04/10 09:38:22;;;;;;;7.80;5.55;;;;;;;18.31;40.28;101581.94;4934172;28;122795;-80
2023/04/10 09:40:49;;;;;;;8.13;5.68;;;;;;;18.34;40.33;101581.72;4947567;28;119463;-81
2023/04/10 09:43:27;;;;;;;6.93;5.10;;;;;;;18.35;40.18;101571.88;4918262;28;119889;-80
2023/04/10 09:45:56;;;;;;;6.43;5.30;;;;;;;18.36;39.79;101569.06;4918169;28;125058;-80
2023/04/10 09:48:25;;;;;;;9.75;5.20;;;;;;;18.37;40.05;101562.75;4933379;28;123126;-80
2023/04/10 09:50:52;;;;;;;6.45;5.03;;;;;;;18.37;39.86;101560.06;4932184;28;117195;-81
2023/04/10 09:53:20;;;;;;;6.30;4.72;;;;;;;18.37;39.79;101549.34;4935277;28;118617;-81
2023/04/10 09:55:49;;;;;;;6.90;5.03;;;;;;;18.38;39.77;101548.38;4934600;28;124179;-81
2023/04/10 09:58:17;;;;;;;8.55;5.13;;;;;;;18.40;39.82;101543.78;4935626;28;123329;-80
2023/04/10 10:00:48;;;;;;;7.60;5.05;;;;;;;18.42;39.59;101547.22;4919624;28;120464;-80
2023/04/10 10:03:17;;;;;;;6.95;5.10;;;;;;;18.43;39.53;101537.34;4934929;28;118124;-80
2023/04/10 10:05:47;;;;;;;6.68;4.80;;;;;;;18.45;39.56;101532.72;4934279;28;122284;-81
2023/04/10 10:08:15;;;;;;;7.57;4.65;;;;;;;18.46;39.56;101521.91;4935149;28;124012;-80
2023/04/10 10:10:50;;;;;;;7.85;4.82;;;;;;;18.51;39.53;101523.41;4935781;28;119677;-80
2023/04/10 10:13:26;;;;;;;6.25;4.82;;;;;;;18.57;39.61;101514.94;4928004;28;117145;-80
2023/04/10 10:16:17;;;;;;;9.32;5.05;;;;;;;18.62;39.68;101520.84;4919147;28;127867;-80
2023/04/10 10:18:51;;;;;;;5.90;4.50;;;;;;;18.67;39.64;101514.22;4952992;28;124293;-80
2023/04/10 10:21:19;;;;;;;7.28;4.85;;;;;;;18.70;39.67;101513.13;4919813;28;119063;-80
2023/04/10 10:23:52;;;;;;;8.75;5.40;;;;;;;18.75;39.72;101521.72;4955273;28;120092;-80
2023/04/10 10:26:23;;;;;;;7.57;5.30;;;;;;;18.83;39.50;101514.03;4916860;28;124130;-79
2023/04/10 10:28:53;;;;;;;7.82;5.43;;;;;;;18.92;39.54;101506.34;4952087;28;122936;-81
2023/04/10 10:31:23;;;;;;;7.55;5.63;;;;;;;19.00;39.35;101509.31;4936282;28;119678;-79
2023/04/10 10:33:54;;;;;;;6.90;5.55;;;;;;;19.08;39.67;101501.63;4923079;28;118567;-82
2023/04/10 10:36:21;;;;;;;7.80;5.82;;;;;;;19.15;39.62;101492.13;4948599;28;123871;-82
2023/04/10 10:39:17;;;;;;;6.85;5.20;;;;;;;19.22;39.48;101493.41;4924168;28;124092;-82
2023/04/10 10:41:55;;;;;;;10.37;6.00;;;;;;;19.26;39.36;101476.13;4935687;28;118695;-80
2023/04/10 10:44:41;;;;;;;10.75;6.40;;;;;;;19.32;39.33;101460.53;4947347;28;119130;-79
2023/04/10 10:47:19;;;;;;;7.30;5.35;;;;;;;19.37;39.43;101458.38;4931327;28;124466;-82
2023/04/10 10:49:55;;;;;;;8.20;5.53;;;;;;;19.40;39.32;101453.66;4941848;28;125411;-80
2023/04/10 10:52:48;;;;;;;6.93;5.32;;;;;;;19.47;39.12;101456.72;4929785;28;119586;-77
2023/04/10 10:55:23;;;;;;;6.43;5.45;;;;;;;19.52;38.97;101446.50;4940489;28;120912;-80
2023/04/10 10:57:52;;;;;;;7.65;5.40;;;;;;;19.58;39.12;101451.44;4935753;28;125799;-81
2023/04/10 11:00:23;;;;;;;6.97;5.32;;;;;;;19.67;39.16;101438.31;4935846;28;123668;-80
2023/04/10 11:03:09;;;;;;;6.35;5.05;;;;;;;19.76;39.13;101432.25;4953599;28;119064;-80
2023/04/10 11:05:57;;;;;;;7.32;5.57;;;;;;;19.82;39.13;101427.28;4938795;28;119984;-79
2023/04/10 11:08:46;;;;;;;10.10;5.85;;;;;;;19.89;38.98;101430.38;4934347;28;124134;-80
2023/04/10 11:11:14;;;;;;;7.25;5.20;;;;;;;19.94;39.01;101435.41;4926368;28;123700;-81
2023/04/10 11:14:02;;;;;;;6.88;5.38;;;;;;;19.98;38.95;101421.59;4949325;28;119301;-80
2023/04/10 11:16:30;;;;;;;6.07;5.38;;;;;;;20.03;38.95;101408.66;4948912;28;118503;-80
2023/04/10 11:19:06;;;;;;;6.30;5.22;;;;;;;20.12;39.15;101395.53;4913900;28;121782;-79
2023/04/10 11:22:14;;;;;;;7.28;4.97;;;;;;;20.19;38.86;101407.50;4928406;28;124952;-80
2023/04/10 11:24:51;;;;;;;5.75;5.07;;;;;;;20.27;38.66;101405.09;4890227;28;117996;-80
2023/04/10 11:27:38;;;;;;;6.60;4.93;;;;;;;20.38;38.61;101397.03;4929475;28;120554;-80
2023/04/10 11:30:30;;;;;;;5.50;4.15;;;;;;;20.49;38.21;101392.66;4944909;28;123581;-81
2023/04/10 11:32:59;;;;;;;5.63;4.03;;;;;;;20.59;37.97;101388.28;4945883;28;123120;-81
2023/04/10 11:35:27;;;;;;;7.20;4.07;;;;;;;20.65;37.81;101393.19;4912945;28;120056;-81
2023/04/10 11:38:12;;;;;;;5.53;3.90;;;;;;;20.74;37.75;101379.00;4947984;28;119663;-80